sensor_id;sensor_type;location;lat;lon;timestamp;temperature;humidity
20091;DHT22;10205;49.678;6.560;2023-03-17T00:00:33;12.70;58.70
20091;DHT22;10205;49.678;6.560;2023-03-17T00:03:01;12.70;58.60
20091;DHT22;10205;49.678;6.560;2023-03-17T00:05:30;12.70;58.80
20091;DHT22;10205;49.678;6.560;2023-03-17T00:08:03;12.70;58.80
20091;DHT22;10205;49.678;6.560;2023-03-17T00:10:36;12.60;58.90
20091;DHT22;10205;49.678;6.560;2023-03-17T00:13:05;12.60;58.60
20091;DHT22;10205;49.678;6.560;2023-03-17T00:15:32;12.60;58.00
20091;DHT22;10205;49.678;6.560;2023-03-17T00:18:00;12.50;58.20
20091;DHT22;10205;49.678;6.560;2023-03-17T00:20:29;12.50;57.60
20091;DHT22;10205;49.678;6.560;2023-03-17T00:22:58;12.40;58.30
20091;DHT22;10205;49.678;6.560;2023-03-17T00:25:30;12.40;58.60
20091;DHT22;10205;49.678;6.560;2023-03-17T00:28:00;12.30;58.20
20091;DHT22;10205;49.678;6.560;2023-03-17T00:30:29;12.30;57.60
20091;DHT22;10205;49.678;6.560;2023-03-17T00:32:57;12.30;58.50
20091;DHT22;10205;49.678;6.560;2023-03-17T00:35:26;12.20;58.80
20091;DHT22;10205;49.678;6.560;2023-03-17T00:37:56;12.20;59.30
20091;DHT22;10205;49.678;6.560;2023-03-17T00:40:26;12.10;59.90
20091;DHT22;10205;49.678;6.560;2023-03-17T00:42:56;12.10;59.40
20091;DHT22;10205;49.678;6.560;2023-03-17T00:45:25;12.10;59.10
20091;DHT22;10205;49.678;6.560;2023-03-17T00:47:54;12.10;59.10
20091;DHT22;10205;49.678;6.560;2023-03-17T00:50:23;12.10;59.40
20091;DHT22;10205;49.678;6.560;2023-03-17T00:52:53;12.10;59.60
20091;DHT22;10205;49.678;6.560;2023-03-17T00:55:23;12.00;59.60
20091;DHT22;10205;49.678;6.560;2023-03-17T00:57:52;12.00;59.70
20091;DHT22;10205;49.678;6.560;2023-03-17T01:00:22;12.00;59.70
20091;DHT22;10205;49.678;6.560;2023-03-17T01:02:52;12.00;59.90
20091;DHT22;10205;49.678;6.560;2023-03-17T01:05:23;12.00;59.90
20091;DHT22;10205;49.678;6.560;2023-03-17T01:07:53;12.00;59.90
20091;DHT22;10205;49.678;6.560;2023-03-17T01:10:23;12.00;60.00
20091;DHT22;10205;49.678;6.560;2023-03-17T01:12:53;12.00;59.80
20091;DHT22;10205;49.678;6.560;2023-03-17T01:15:23;12.00;59.90
20091;DHT22;10205;49.678;6.560;2023-03-17T01:17:51;12.00;59.80
20091;DHT22;10205;49.678;6.560;2023-03-17T01:20:22;12.00;59.70
20091;DHT22;10205;49.678;6.560;2023-03-17T01:22:50;11.90;59.10
20091;DHT22;10205;49.678;6.560;2023-03-17T01:25:18;11.90;58.30
20091;DHT22;10205;49.678;6.560;2023-03-17T01:27:46;11.90;59.10
20091;DHT22;10205;49.678;6.560;2023-03-17T01:30:23;11.80;59.50
20091;DHT22;10205;49.678;6.560;2023-03-17T01:32:51;11.80;59.80
20091;DHT22;10205;49.678;6.560;2023-03-17T01:35:20;11.80;59.70
20091;DHT22;10205;49.678;6.560;2023-03-17T01:37:49;11.80;59.70
20091;DHT22;10205;49.678;6.560;2023-03-17T01:40:19;11.70;59.70
20091;DHT22;10205;49.678;6.560;2023-03-17T01:42:50;11.70;60.00
20091;DHT22;10205;49.678;6.560;2023-03-17T01:49:05;11.70;60.10
20091;DHT22;10205;49.678;6.560;2023-03-17T01:51:41;11.70;60.10
20091;DHT22;10205;49.678;6.560;2023-03-17T01:54:16;11.60;60.10
20091;DHT22;10205;49.678;6.560;2023-03-17T01:56:49;11.60;60.20
20091;DHT22;10205;49.678;6.560;2023-03-17T01:59:24;11.60;60.30
20091;DHT22;10205;49.678;6.560;2023-03-17T02:01:58;11.60;59.30
20091;DHT22;10205;49.678;6.560;2023-03-17T02:04:29;11.50;59.70
20091;DHT22;10205;49.678;6.560;2023-03-17T02:07:03;11.50;59.80
20091;DHT22;10205;49.678;6.560;2023-03-17T02:09:31;11.40;60.20
20091;DHT22;10205;49.678;6.560;2023-03-17T02:12:00;11.40;59.40
20091;DHT22;10205;49.678;6.560;2023-03-17T02:14:29;11.40;59.80
20091;DHT22;10205;49.678;6.560;2023-03-17T02:16:57;11.40;60.20
20091;DHT22;10205;49.678;6.560;2023-03-17T02:19:27;11.30;60.30
20091;DHT22;10205;49.678;6.560;2023-03-17T02:21:57;11.30;59.80
20091;DHT22;10205;49.678;6.560;2023-03-17T02:24:31;11.30;59.70
20091;DHT22;10205;49.678;6.560;2023-03-17T02:27:03;11.20;59.90
20091;DHT22;10205;49.678;6.560;2023-03-17T02:29:36;11.20;60.00
20091;DHT22;10205;49.678;6.560;2023-03-17T02:32:04;11.10;60.20
20091;DHT22;10205;49.678;6.560;2023-03-17T02:34:32;11.10;60.50
20091;DHT22;10205;49.678;6.560;2023-03-17T02:37:01;11.10;60.50
20091;DHT22;10205;49.678;6.560;2023-03-17T02:39:29;11.10;60.70
20091;DHT22;10205;49.678;6.560;2023-03-17T02:41:56;11.10;60.70
20091;DHT22;10205;49.678;6.560;2023-03-17T02:44:23;11.10;60.70
20091;DHT22;10205;49.678;6.560;2023-03-17T02:46:51;11.00;60.30
20091;DHT22;10205;49.678;6.560;2023-03-17T02:49:18;11.00;59.90
20091;DHT22;10205;49.678;6.560;2023-03-17T02:51:46;11.00;60.10
20091;DHT22;10205;49.678;6.560;2023-03-17T02:54:14;11.00;59.60
20091;DHT22;10205;49.678;6.560;2023-03-17T02:56:44;10.90;60.20
20091;DHT22;10205;49.678;6.560;2023-03-17T02:59:15;10.90;60.80
20091;DHT22;10205;49.678;6.560;2023-03-17T03:01:42;10.90;61.70
20091;DHT22;10205;49.678;6.560;2023-03-17T03:04:09;10.90;60.80
20091;DHT22;10205;49.678;6.560;2023-03-17T03:06:36;10.90;60.80
20091;DHT22;10205;49.678;6.560;2023-03-17T03:09:04;10.80;60.40
20091;DHT22;10205;49.678;6.560;2023-03-17T03:11:33;10.80;60.70
20091;DHT22;10205;49.678;6.560;2023-03-17T03:14:00;10.80;61.00
20091;DHT22;10205;49.678;6.560;2023-03-17T03:16:28;10.70;60.90
20091;DHT22;10205;49.678;6.560;2023-03-17T03:18:55;10.70;60.90
20091;DHT22;10205;49.678;6.560;2023-03-17T03:21:26;10.70;61.00
20091;DHT22;10205;49.678;6.560;2023-03-17T03:23:54;10.70;60.90
20091;DHT22;10205;49.678;6.560;2023-03-17T03:26:21;10.70;60.10
20091;DHT22;10205;49.678;6.560;2023-03-17T03:28:50;10.70;59.70
20091;DHT22;10205;49.678;6.560;2023-03-17T03:31:17;10.60;60.20
20091;DHT22;10205;49.678;6.560;2023-03-17T03:33:45;10.60;60.60
20091;DHT22;10205;49.678;6.560;2023-03-17T03:36:12;10.60;60.70
20091;DHT22;10205;49.678;6.560;2023-03-17T03:38:39;10.50;60.50
20091;DHT22;10205;49.678;6.560;2023-03-17T03:41:07;10.50;60.60
20091;DHT22;10205;49.678;6.560;2023-03-17T03:43:34;10.50;60.70
20091;DHT22;10205;49.678;6.560;2023-03-17T03:46:03;10.40;60.30
20091;DHT22;10205;49.678;6.560;2023-03-17T03:48:31;10.40;60.30
20091;DHT22;10205;49.678;6.560;2023-03-17T03:50:59;10.40;60.60
20091;DHT22;10205;49.678;6.560;2023-03-17T03:53:28;10.30;59.90
20091;DHT22;10205;49.678;6.560;2023-03-17T03:55:55;10.30;60.20
20091;DHT22;10205;49.678;6.560;2023-03-17T03:58:22;10.30;60.40
20091;DHT22;10205;49.678;6.560;2023-03-17T04:00:50;10.20;60.70
20091;DHT22;10205;49.678;6.560;2023-03-17T04:03:18;10.20;60.90
20091;DHT22;10205;49.678;6.560;2023-03-17T04:05:45;10.10;60.00
20091;DHT22;10205;49.678;6.560;2023-03-17T04:08:12;10.10;60.10
20091;DHT22;10205;49.678;6.560;2023-03-17T04:10:43;10.10;60.50
20091;DHT22;10205;49.678;6.560;2023-03-17T04:13:10;10.00;60.90
20091;DHT22;10205;49.678;6.560;2023-03-17T04:15:38;10.00;60.70
20091;DHT22;10205;49.678;6.560;2023-03-17T04:18:05;9.90;61.10
20091;DHT22;10205;49.678;6.560;2023-03-17T04:20:33;9.90;61.30
20091;DHT22;10205;49.678;6.560;2023-03-17T04:23:01;9.90;61.30
20091;DHT22;10205;49.678;6.560;2023-03-17T04:25:28;9.90;61.20
20091;DHT22;10205;49.678;6.560;2023-03-17T04:27:56;9.80;61.20
20091;DHT22;10205;49.678;6.560;2023-03-17T04:30:23;9.80;61.40
20091;DHT22;10205;49.678;6.560;2023-03-17T04:32:50;9.80;61.20
20091;DHT22;10205;49.678;6.560;2023-03-17T04:35:20;9.70;61.60
20091;DHT22;10205;49.678;6.560;2023-03-17T04:37:49;9.70;62.00
20091;DHT22;10205;49.678;6.560;2023-03-17T04:40:17;9.70;62.80
20091;DHT22;10205;49.678;6.560;2023-03-17T04:42:44;9.70;61.60
20091;DHT22;10205;49.678;6.560;2023-03-17T04:45:13;9.70;61.60
20091;DHT22;10205;49.678;6.560;2023-03-17T04:47:41;9.70;61.70
20091;DHT22;10205;49.678;6.560;2023-03-17T04:50:09;9.60;61.80
20091;DHT22;10205;49.678;6.560;2023-03-17T04:52:37;9.60;62.10
20091;DHT22;10205;49.678;6.560;2023-03-17T04:55:07;9.60;62.10
20091;DHT22;10205;49.678;6.560;2023-03-17T04:57:36;9.60;62.00
20091;DHT22;10205;49.678;6.560;2023-03-17T05:00:05;9.60;62.10
20091;DHT22;10205;49.678;6.560;2023-03-17T05:02:34;9.60;62.10
20091;DHT22;10205;49.678;6.560;2023-03-17T05:05:06;9.60;62.10
20091;DHT22;10205;49.678;6.560;2023-03-17T05:07:33;9.60;62.10
20091;DHT22;10205;49.678;6.560;2023-03-17T05:10:00;9.60;61.90
20091;DHT22;10205;49.678;6.560;2023-03-17T05:12:29;9.50;61.80
20091;DHT22;10205;49.678;6.560;2023-03-17T05:14:56;9.50;61.50
20091;DHT22;10205;49.678;6.560;2023-03-17T05:17:23;9.50;61.50
20091;DHT22;10205;49.678;6.560;2023-03-17T05:19:50;9.50;61.80
20091;DHT22;10205;49.678;6.560;2023-03-17T05:22:17;9.40;62.00
20091;DHT22;10205;49.678;6.560;2023-03-17T05:24:44;9.40;62.20
20091;DHT22;10205;49.678;6.560;2023-03-17T05:27:12;9.40;62.30
20091;DHT22;10205;49.678;6.560;2023-03-17T05:29:40;9.40;62.10
20091;DHT22;10205;49.678;6.560;2023-03-17T05:32:07;9.40;61.90
20091;DHT22;10205;49.678;6.560;2023-03-17T05:34:35;9.30;61.80
20091;DHT22;10205;49.678;6.560;2023-03-17T05:37:02;9.30;61.80
20091;DHT22;10205;49.678;6.560;2023-03-17T05:39:30;9.30;62.00
20091;DHT22;10205;49.678;6.560;2023-03-17T05:41:57;9.30;62.10
20091;DHT22;10205;49.678;6.560;2023-03-17T05:44:25;9.30;62.30
20091;DHT22;10205;49.678;6.560;2023-03-17T05:46:53;9.30;62.30
20091;DHT22;10205;49.678;6.560;2023-03-17T05:49:21;9.30;62.50
20091;DHT22;10205;49.678;6.560;2023-03-17T05:51:48;9.20;62.10
20091;DHT22;10205;49.678;6.560;2023-03-17T05:54:18;9.20;61.70
20091;DHT22;10205;49.678;6.560;2023-03-17T05:56:46;9.10;61.70
20091;DHT22;10205;49.678;6.560;2023-03-17T05:59:13;9.10;62.10
20091;DHT22;10205;49.678;6.560;2023-03-17T06:01:45;9.10;62.00
20091;DHT22;10205;49.678;6.560;2023-03-17T06:04:13;9.10;62.20
20091;DHT22;10205;49.678;6.560;2023-03-17T06:06:40;9.00;62.10
20091;DHT22;10205;49.678;6.560;2023-03-17T06:09:07;9.00;62.00
20091;DHT22;10205;49.678;6.560;2023-03-17T06:11:34;9.00;62.20
20091;DHT22;10205;49.678;6.560;2023-03-17T06:14:01;9.00;62.40
20091;DHT22;10205;49.678;6.560;2023-03-17T06:16:28;8.90;62.50
20091;DHT22;10205;49.678;6.560;2023-03-17T06:18:57;8.90;62.60
20091;DHT22;10205;49.678;6.560;2023-03-17T06:21:26;8.90;62.90
20091;DHT22;10205;49.678;6.560;2023-03-17T06:23:53;8.90;62.90
20091;DHT22;10205;49.678;6.560;2023-03-17T06:26:20;8.80;62.80
20091;DHT22;10205;49.678;6.560;2023-03-17T06:28:47;8.80;62.70
20091;DHT22;10205;49.678;6.560;2023-03-17T06:31:14;8.80;62.90
20091;DHT22;10205;49.678;6.560;2023-03-17T06:33:44;8.80;63.00
20091;DHT22;10205;49.678;6.560;2023-03-17T06:36:11;8.80;63.30
20091;DHT22;10205;49.678;6.560;2023-03-17T06:38:39;8.80;63.30
20091;DHT22;10205;49.678;6.560;2023-03-17T06:41:07;8.80;63.50
20091;DHT22;10205;49.678;6.560;2023-03-17T06:43:34;8.80;63.50
20091;DHT22;10205;49.678;6.560;2023-03-17T06:46:01;8.80;63.60
20091;DHT22;10205;49.678;6.560;2023-03-17T06:48:28;8.80;63.60
20091;DHT22;10205;49.678;6.560;2023-03-17T06:50:55;8.70;63.70
20091;DHT22;10205;49.678;6.560;2023-03-17T06:53:22;8.70;63.60
20091;DHT22;10205;49.678;6.560;2023-03-17T06:55:51;8.80;63.70
20091;DHT22;10205;49.678;6.560;2023-03-17T06:58:18;8.70;63.60
20091;DHT22;10205;49.678;6.560;2023-03-17T07:00:46;8.70;63.60
20091;DHT22;10205;49.678;6.560;2023-03-17T07:03:14;8.70;63.60
20091;DHT22;10205;49.678;6.560;2023-03-17T07:05:41;8.70;63.60
20091;DHT22;10205;49.678;6.560;2023-03-17T07:08:09;8.70;63.80
20091;DHT22;10205;49.678;6.560;2023-03-17T07:10:37;8.70;63.90
20091;DHT22;10205;49.678;6.560;2023-03-17T07:13:09;8.60;64.00
20091;DHT22;10205;49.678;6.560;2023-03-17T07:15:37;8.60;64.10
20091;DHT22;10205;49.678;6.560;2023-03-17T07:18:04;8.60;64.20
20091;DHT22;10205;49.678;6.560;2023-03-17T07:20:32;8.60;64.20
20091;DHT22;10205;49.678;6.560;2023-03-17T07:22:59;8.60;64.20
20091;DHT22;10205;49.678;6.560;2023-03-17T07:25:26;8.60;64.30
20091;DHT22;10205;49.678;6.560;2023-03-17T07:27:54;8.60;64.40
20091;DHT22;10205;49.678;6.560;2023-03-17T07:30:22;8.60;64.40
20091;DHT22;10205;49.678;6.560;2023-03-17T07:32:49;8.50;64.60
20091;DHT22;10205;49.678;6.560;2023-03-17T07:35:16;8.60;64.60
20091;DHT22;10205;49.678;6.560;2023-03-17T07:37:43;8.50;64.70
20091;DHT22;10205;49.678;6.560;2023-03-17T07:40:12;8.60;64.80
20091;DHT22;10205;49.678;6.560;2023-03-17T07:42:39;8.60;64.90
20091;DHT22;10205;49.678;6.560;2023-03-17T07:45:07;8.60;65.00
20091;DHT22;10205;49.678;6.560;2023-03-17T07:47:36;8.60;65.00
20091;DHT22;10205;49.678;6.560;2023-03-17T07:50:04;8.60;65.20
20091;DHT22;10205;49.678;6.560;2023-03-17T07:52:32;8.60;65.10
20091;DHT22;10205;49.678;6.560;2023-03-17T07:54:59;8.60;65.10
20091;DHT22;10205;49.678;6.560;2023-03-17T07:57:27;8.60;65.10
20091;DHT22;10205;49.678;6.560;2023-03-17T07:59:54;8.70;65.20
20091;DHT22;10205;49.678;6.560;2023-03-17T08:02:21;8.70;65.20
20091;DHT22;10205;49.678;6.560;2023-03-17T08:04:50;8.70;65.30
20091;DHT22;10205;49.678;6.560;2023-03-17T08:07:18;8.70;65.30
20091;DHT22;10205;49.678;6.560;2023-03-17T08:09:45;8.70;65.30
20091;DHT22;10205;49.678;6.560;2023-03-17T08:12:13;8.70;65.30
20091;DHT22;10205;49.678;6.560;2023-03-17T08:14:40;8.80;65.40
20091;DHT22;10205;49.678;6.560;2023-03-17T08:17:07;8.80;65.50
20091;DHT22;10205;49.678;6.560;2023-03-17T08:19:35;8.80;65.50
20091;DHT22;10205;49.678;6.560;2023-03-17T08:22:03;8.80;65.50
20091;DHT22;10205;49.678;6.560;2023-03-17T08:24:31;8.80;65.60
20091;DHT22;10205;49.678;6.560;2023-03-17T08:26:58;8.90;65.50
20091;DHT22;10205;49.678;6.560;2023-03-17T08:29:26;8.90;65.70
20091;DHT22;10205;49.678;6.560;2023-03-17T08:31:53;8.90;65.80
20091;DHT22;10205;49.678;6.560;2023-03-17T08:34:20;8.90;65.80
20091;DHT22;10205;49.678;6.560;2023-03-17T08:36:48;8.90;65.90
20091;DHT22;10205;49.678;6.560;2023-03-17T08:39:17;9.00;65.90
20091;DHT22;10205;49.678;6.560;2023-03-17T08:41:45;9.00;65.90
20091;DHT22;10205;49.678;6.560;2023-03-17T08:44:12;9.00;65.80
20091;DHT22;10205;49.678;6.560;2023-03-17T08:46:39;9.00;65.90
20091;DHT22;10205;49.678;6.560;2023-03-17T08:49:07;9.10;65.90
20091;DHT22;10205;49.678;6.560;2023-03-17T08:51:37;9.10;65.80
20091;DHT22;10205;49.678;6.560;2023-03-17T08:54:05;9.10;65.80
20091;DHT22;10205;49.678;6.560;2023-03-17T08:56:34;9.20;65.70
20091;DHT22;10205;49.678;6.560;2023-03-17T08:59:02;9.20;65.80
20091;DHT22;10205;49.678;6.560;2023-03-17T09:01:31;9.20;65.80
20091;DHT22;10205;49.678;6.560;2023-03-17T09:03:59;9.30;66.00
20091;DHT22;10205;49.678;6.560;2023-03-17T09:06:27;9.30;66.20
20091;DHT22;10205;49.678;6.560;2023-03-17T09:08:55;9.30;66.10
20091;DHT22;10205;49.678;6.560;2023-03-17T09:11:24;9.40;66.10
20091;DHT22;10205;49.678;6.560;2023-03-17T09:13:54;9.40;66.40
20091;DHT22;10205;49.678;6.560;2023-03-17T09:16:21;9.50;66.30
20091;DHT22;10205;49.678;6.560;2023-03-17T09:18:49;9.50;66.10
20091;DHT22;10205;49.678;6.560;2023-03-17T09:21:17;9.50;66.40
20091;DHT22;10205;49.678;6.560;2023-03-17T09:23:45;9.60;66.60
20091;DHT22;10205;49.678;6.560;2023-03-17T09:26:13;9.60;66.40
20091;DHT22;10205;49.678;6.560;2023-03-17T09:28:40;9.70;66.60
20091;DHT22;10205;49.678;6.560;2023-03-17T09:31:11;9.70;66.70
20091;DHT22;10205;49.678;6.560;2023-03-17T09:33:39;9.80;66.70
20091;DHT22;10205;49.678;6.560;2023-03-17T09:36:07;9.90;66.50
20091;DHT22;10205;49.678;6.560;2023-03-17T09:38:35;9.90;66.60
20091;DHT22;10205;49.678;6.560;2023-03-17T09:41:22;10.00;66.60
20091;DHT22;10205;49.678;6.560;2023-03-17T09:44:06;10.10;66.70
20091;DHT22;10205;49.678;6.560;2023-03-17T09:46:50;10.10;66.50
20091;DHT22;10205;49.678;6.560;2023-03-17T09:49:37;10.20;66.30
20091;DHT22;10205;49.678;6.560;2023-03-17T09:52:12;10.30;66.40
20091;DHT22;10205;49.678;6.560;2023-03-17T09:54:44;10.40;66.00
20091;DHT22;10205;49.678;6.560;2023-03-17T09:57:16;10.40;65.90
20091;DHT22;10205;49.678;6.560;2023-03-17T09:59:53;10.50;66.10
20091;DHT22;10205;49.678;6.560;2023-03-17T10:02:33;10.60;65.80
20091;DHT22;10205;49.678;6.560;2023-03-17T10:05:12;10.70;65.80
20091;DHT22;10205;49.678;6.560;2023-03-17T10:07:49;10.70;65.50
20091;DHT22;10205;49.678;6.560;2023-03-17T10:10:32;10.80;65.60
20091;DHT22;10205;49.678;6.560;2023-03-17T10:13:16;10.90;65.30
20091;DHT22;10205;49.678;6.560;2023-03-17T10:15:56;11.00;65.30
20091;DHT22;10205;49.678;6.560;2023-03-17T10:18:32;11.10;65.50
20091;DHT22;10205;49.678;6.560;2023-03-17T10:21:09;11.20;65.30
20091;DHT22;10205;49.678;6.560;2023-03-17T10:23:39;11.30;65.40
20091;DHT22;10205;49.678;6.560;2023-03-17T10:26:20;11.40;64.80
20091;DHT22;10205;49.678;6.560;2023-03-17T10:28:56;11.50;64.60
20091;DHT22;10205;49.678;6.560;2023-03-17T10:31:27;11.60;64.50
20091;DHT22;10205;49.678;6.560;2023-03-17T10:34:10;11.70;63.80
20091;DHT22;10205;49.678;6.560;2023-03-17T10:36:42;11.70;63.50
20091;DHT22;10205;49.678;6.560;2023-03-17T10:39:13;11.80;63.40
20091;DHT22;10205;49.678;6.560;2023-03-17T10:41:50;11.90;62.90
20091;DHT22;10205;49.678;6.560;2023-03-17T10:44:27;12.10;63.10
20091;DHT22;10205;49.678;6.560;2023-03-17T10:47:01;12.20;63.10
20091;DHT22;10205;49.678;6.560;2023-03-17T10:49:33;12.30;63.60
20091;DHT22;10205;49.678;6.560;2023-03-17T10:52:05;12.40;62.30
20091;DHT22;10205;49.678;6.560;2023-03-17T10:54:34;12.50;62.10
20091;DHT22;10205;49.678;6.560;2023-03-17T10:57:06;12.60;61.30
20091;DHT22;10205;49.678;6.560;2023-03-17T10:59:40;12.70;61.10
20091;DHT22;10205;49.678;6.560;2023-03-17T11:02:23;12.80;60.90
20091;DHT22;10205;49.678;6.560;2023-03-17T11:05:06;12.90;60.10
20091;DHT22;10205;49.678;6.560;2023-03-17T11:07:37;13.00;60.00
20091;DHT22;10205;49.678;6.560;2023-03-17T11:10:16;13.10;60.70
20091;DHT22;10205;49.678;6.560;2023-03-17T11:12:54;13.20;60.50
20091;DHT22;10205;49.678;6.560;2023-03-17T11:15:30;13.30;60.30
20091;DHT22;10205;49.678;6.560;2023-03-17T11:18:00;13.40;60.10
20091;DHT22;10205;49.678;6.560;2023-03-17T11:20:45;13.50;59.90
20091;DHT22;10205;49.678;6.560;2023-03-17T11:23:25;13.60;59.60
20091;DHT22;10205;49.678;6.560;2023-03-17T11:26:10;13.70;59.40
20091;DHT22;10205;49.678;6.560;2023-03-17T11:28:53;13.80;58.90
20091;DHT22;10205;49.678;6.560;2023-03-17T11:31:32;13.90;59.30
20091;DHT22;10205;49.678;6.560;2023-03-17T11:34:07;14.00;59.10
20091;DHT22;10205;49.678;6.560;2023-03-17T11:36:46;14.20;59.10
20091;DHT22;10205;49.678;6.560;2023-03-17T11:39:25;14.30;58.50
20091;DHT22;10205;49.678;6.560;2023-03-17T11:42:01;14.40;58.50
20091;DHT22;10205;49.678;6.560;2023-03-17T11:44:57;14.40;58.20
20091;DHT22;10205;49.678;6.560;2023-03-17T11:47:43;14.60;58.20
20091;DHT22;10205;49.678;6.560;2023-03-17T11:50:32;14.70;58.10
20091;DHT22;10205;49.678;6.560;2023-03-17T11:53:17;14.80;57.70
20091;DHT22;10205;49.678;6.560;2023-03-17T11:56:00;14.80;57.80
20091;DHT22;10205;49.678;6.560;2023-03-17T11:58:33;14.90;57.40
20091;DHT22;10205;49.678;6.560;2023-03-17T12:01:06;15.00;57.40
20091;DHT22;10205;49.678;6.560;2023-03-17T12:03:40;15.10;56.90
20091;DHT22;10205;49.678;6.560;2023-03-17T12:06:14;15.10;56.90
20091;DHT22;10205;49.678;6.560;2023-03-17T12:08:51;15.20;56.40
20091;DHT22;10205;49.678;6.560;2023-03-17T12:11:24;15.30;56.40
20091;DHT22;10205;49.678;6.560;2023-03-17T12:14:00;15.30;56.50
20091;DHT22;10205;49.678;6.560;2023-03-17T12:16:37;15.40;56.80
20091;DHT22;10205;49.678;6.560;2023-03-17T12:19:11;15.50;56.80
20091;DHT22;10205;49.678;6.560;2023-03-17T12:21:45;15.50;55.80
20091;DHT22;10205;49.678;6.560;2023-03-17T12:24:20;15.60;54.90
20091;DHT22;10205;49.678;6.560;2023-03-17T12:26:55;15.60;56.00
20091;DHT22;10205;49.678;6.560;2023-03-17T12:29:36;15.70;55.30
20091;DHT22;10205;49.678;6.560;2023-03-17T12:32:11;15.80;55.40
20091;DHT22;10205;49.678;6.560;2023-03-17T12:34:49;15.90;55.80
20091;DHT22;10205;49.678;6.560;2023-03-17T12:37:18;15.90;55.00
20091;DHT22;10205;49.678;6.560;2023-03-17T12:39:55;15.90;55.30
20091;DHT22;10205;49.678;6.560;2023-03-17T12:42:37;16.00;55.30
20091;DHT22;10205;49.678;6.560;2023-03-17T12:45:28;16.00;54.90
20091;DHT22;10205;49.678;6.560;2023-03-17T12:48:24;16.10;54.80
20091;DHT22;10205;49.678;6.560;2023-03-17T12:51:33;16.20;55.30
20091;DHT22;10205;49.678;6.560;2023-03-17T12:54:13;16.20;54.70
20091;DHT22;10205;49.678;6.560;2023-03-17T12:56:48;16.30;55.20
20091;DHT22;10205;49.678;6.560;2023-03-17T12:59:18;16.30;54.80
20091;DHT22;10205;49.678;6.560;2023-03-17T13:01:54;16.30;54.50
20091;DHT22;10205;49.678;6.560;2023-03-17T13:04:25;16.40;54.40
20091;DHT22;10205;49.678;6.560;2023-03-17T13:07:00;16.40;54.00
20091;DHT22;10205;49.678;6.560;2023-03-17T13:09:46;16.50;53.30
20091;DHT22;10205;49.678;6.560;2023-03-17T13:12:35;16.50;53.50
20091;DHT22;10205;49.678;6.560;2023-03-17T13:15:27;16.60;53.30
20091;DHT22;10205;49.678;6.560;2023-03-17T13:18:26;16.70;53.10
20091;DHT22;10205;49.678;6.560;2023-03-17T13:21:13;16.70;52.20
20091;DHT22;10205;49.678;6.560;2023-03-17T13:23:44;16.80;53.00
20091;DHT22;10205;49.678;6.560;2023-03-17T13:26:17;16.80;53.20
20091;DHT22;10205;49.678;6.560;2023-03-17T13:28:49;16.90;53.50
20091;DHT22;10205;49.678;6.560;2023-03-17T13:31:32;16.90;53.10
20091;DHT22;10205;49.678;6.560;2023-03-17T13:34:09;16.90;52.50
20091;DHT22;10205;49.678;6.560;2023-03-17T13:36:46;17.00;52.40
20091;DHT22;10205;49.678;6.560;2023-03-17T13:42:57;17.00;52.50
20091;DHT22;10205;49.678;6.560;2023-03-17T13:45:38;17.10;52.60
20091;DHT22;10205;49.678;6.560;2023-03-17T13:48:30;17.10;52.50
20091;DHT22;10205;49.678;6.560;2023-03-17T13:51:00;17.20;52.50
20091;DHT22;10205;49.678;6.560;2023-03-17T13:53:40;17.20;52.70
20091;DHT22;10205;49.678;6.560;2023-03-17T13:56:15;17.20;52.30
20091;DHT22;10205;49.678;6.560;2023-03-17T13:59:06;17.20;51.30
20091;DHT22;10205;49.678;6.560;2023-03-17T14:01:42;17.20;50.70
20091;DHT22;10205;49.678;6.560;2023-03-17T14:04:19;17.30;50.70
20091;DHT22;10205;49.678;6.560;2023-03-17T14:06:50;17.30;51.10
20091;DHT22;10205;49.678;6.560;2023-03-17T14:09:30;17.30;51.30
20091;DHT22;10205;49.678;6.560;2023-03-17T14:12:10;17.30;50.30
20091;DHT22;10205;49.678;6.560;2023-03-17T14:14:48;17.40;49.90
20091;DHT22;10205;49.678;6.560;2023-03-17T14:17:24;17.40;50.50
20091;DHT22;10205;49.678;6.560;2023-03-17T14:20:01;17.40;49.80
20091;DHT22;10205;49.678;6.560;2023-03-17T14:22:37;17.50;50.30
20091;DHT22;10205;49.678;6.560;2023-03-17T14:25:14;17.50;51.00
20091;DHT22;10205;49.678;6.560;2023-03-17T14:27:47;17.50;50.00
20091;DHT22;10205;49.678;6.560;2023-03-17T14:30:21;17.50;50.30
20091;DHT22;10205;49.678;6.560;2023-03-17T14:32:59;17.60;50.40
20091;DHT22;10205;49.678;6.560;2023-03-17T14:35:29;17.60;50.00
20091;DHT22;10205;49.678;6.560;2023-03-17T14:37:58;17.60;49.80
20091;DHT22;10205;49.678;6.560;2023-03-17T14:40:28;17.60;50.10
20091;DHT22;10205;49.678;6.560;2023-03-17T14:43:01;17.60;49.90
20091;DHT22;10205;49.678;6.560;2023-03-17T14:48:30;17.70;50.70
20091;DHT22;10205;49.678;6.560;2023-03-17T14:51:01;17.70;51.00
20091;DHT22;10205;49.678;6.560;2023-03-17T14:53:31;17.70;50.90
20091;DHT22;10205;49.678;6.560;2023-03-17T14:56:00;17.70;51.20
20091;DHT22;10205;49.678;6.560;2023-03-17T14:58:30;17.80;49.80
20091;DHT22;10205;49.678;6.560;2023-03-17T15:01:04;17.80;49.60
20091;DHT22;10205;49.678;6.560;2023-03-17T15:03:38;17.80;50.30
20091;DHT22;10205;49.678;6.560;2023-03-17T15:06:21;17.80;50.20
20091;DHT22;10205;49.678;6.560;2023-03-17T15:08:50;17.80;50.50
20091;DHT22;10205;49.678;6.560;2023-03-17T15:11:21;17.80;49.90
20091;DHT22;10205;49.678;6.560;2023-03-17T15:13:54;17.90;50.80
20091;DHT22;10205;49.678;6.560;2023-03-17T15:16:33;17.90;50.10
20091;DHT22;10205;49.678;6.560;2023-03-17T15:19:06;17.90;49.20
20091;DHT22;10205;49.678;6.560;2023-03-17T15:21:42;17.90;49.80
20091;DHT22;10205;49.678;6.560;2023-03-17T15:24:23;17.90;50.00
20091;DHT22;10205;49.678;6.560;2023-03-17T15:27:00;17.90;50.40
20091;DHT22;10205;49.678;6.560;2023-03-17T15:29:29;17.90;49.70
20091;DHT22;10205;49.678;6.560;2023-03-17T15:32:05;17.90;50.30
20091;DHT22;10205;49.678;6.560;2023-03-17T15:34:38;17.90;50.30
20091;DHT22;10205;49.678;6.560;2023-03-17T15:37:12;18.00;50.60
20091;DHT22;10205;49.678;6.560;2023-03-17T15:39:41;18.00;49.50
20091;DHT22;10205;49.678;6.560;2023-03-17T15:42:08;18.00;49.70
20091;DHT22;10205;49.678;6.560;2023-03-17T15:44:35;18.00;50.30
20091;DHT22;10205;49.678;6.560;2023-03-17T15:47:03;18.00;49.90
20091;DHT22;10205;49.678;6.560;2023-03-17T15:49:30;18.00;50.20
20091;DHT22;10205;49.678;6.560;2023-03-17T15:52:00;18.00;50.50
20091;DHT22;10205;49.678;6.560;2023-03-17T15:54:28;18.00;50.20
20091;DHT22;10205;49.678;6.560;2023-03-17T15:56:55;18.00;50.00
20091;DHT22;10205;49.678;6.560;2023-03-17T15:59:22;18.10;49.30
20091;DHT22;10205;49.678;6.560;2023-03-17T16:01:49;18.10;49.70
20091;DHT22;10205;49.678;6.560;2023-03-17T16:04:16;18.10;50.30
20091;DHT22;10205;49.678;6.560;2023-03-17T16:06:43;18.10;50.40
20091;DHT22;10205;49.678;6.560;2023-03-17T16:09:16;18.10;50.70
20091;DHT22;10205;49.678;6.560;2023-03-17T16:11:45;18.10;50.00